Terminal Aerodrome Forecast
Issued by NWS

Home | Current Version | Previous Version | Text Only | Print | Product List | Glossary On
Versions: 1 2 3 4 5 6 7 8 9 10 11 12 13 14
000
FTUS43 KEAX 250200 AAB
TAFMKC
TAF AMD
KMKC 250229Z 2502/2524 26006KT P6SM OVC018
     FM250300 23007KT P6SM FEW250
     FM251000 19010KT P6SM FEW250 WS010/21035KT
     FM251500 19015G30KT P6SM SCT200=

USA.gov is the U.S. government's official web portal to all federal, state and local government web resources and services.